Nearby METAR Reports

 

RPLL - Ninoy Aquino Int, Philippines
Distance from station: S 15km
Updated: 04/17/2021 6:00pm
Mostly cloudy
Mostly cloudy
 Wind from S
Wind: S 6 km/h
Temperature: 31°C
Heat Index: 35°C
Dew Point: 22°C
Humidity: 59%
Barometer: 1008 hPa
Clouds: Mostly cloudy
Visibility: 10 km
Cloud details: Few Clouds 762 m
Mostly cloudy 3048 m
2021/04/17 10:00 RPLL 171000Z 17003KT 070V230 9999 FEW025 BKN100 31/22 Q1008 NOSIG RMK A2977
RPLC - Angeles/Pampanga, Philippines
Distance from station: NW 71km
Updated: 04/17/2021 6:00pm
Few Clouds
Few Clouds
 Wind from N
Wind: N 7 km/h
Clouds: Few Clouds
Visibility: 8 km
Cloud details: Few Clouds 610 m
2021/04/17 10:00 RPLC 171000Z 36004KT 8000 FEW020 BKN30 33/22 Q1008 RMK A2988
 
RPLB - Olongapo/Subic, Philippines
Distance from station: WNW 78km
Updated: 04/17/2021 6:00pm
Mostly cloudy
Mostly cloudy
 Wind from N
Wind: N 11 km/h
Temperature: 30°C
Heat Index: 34°C
Dew Point: 23°C
Humidity: 66%
Barometer: 1009 hPa
Clouds: Mostly cloudy
Visibility: 10 km
Cloud details: Partly cloudy 610 m
Mostly cloudy 9144 m
2021/04/17 10:00 RPLB 171000Z 35006KT 280V050 9999 SCT020 BKN300 30/23 Q1009 NOSIG RMK A2980
RPMR - Romblon/Tablas I, Philippines
Distance from station: SSE 270km
Updated: 04/17/2021 5:00pm
NOT Current
Light rain, Overcast
Light rain, Overcast
 Wind from S
Wind: S 7 km/h
Temperature: 23°C
Dew Point: 22°C
Humidity: 94%
Barometer: 1008 hPa
Summary: Light rain
Clouds: Overcast
Visibility: 10 km
Cloud details: Partly cloudy 549 m
Overcast 2438 m
2021/04/17 09:00 RPMR 170900Z 19004KT 150V230 9999 -RA SCT018 OVC080 23/22 Q1008 RMK A2977
 
RPLI - Laoag Intl(Ph-Ar, Philippines
Distance from station: N 394km
Updated: 04/17/2021 6:00pm

 
Visibility: 0 km
2021/04/17 10:00 RPLI 171000Z 0103KT 9999 FEW018 BKN290 30/23 Q1008 NOSIG RMK A2977
RPVM - Mactan-Cebu, Philippines
Distance from station: SE 582km
Updated: 04/17/2021 6:00pm
Overcast
Overcast
 Wind from NNW
Wind: NNW 15 km/h
Temperature: 30°C
Heat Index: 33°C
Dew Point: 22°C
Humidity: 62%
Barometer: 1007 hPa
Clouds: Overcast
Visibility: 10 km
Cloud details: Partly cloudy 610 m
Overcast 3048 m
2021/04/17 10:00 RPVM 171000Z 33008KT 9999 SCT020 OVC100 30/22 Q1007 RMK A2974
 
RPVP - Puerto Princesa, Philippines
Distance from station: SSW 598km
Updated: 04/17/2021 6:00pm
Partly cloudy
Partly cloudy
 Wind from NNW
Wind: NNW 11 km/h
Temperature: 30°C
Heat Index: 35°C
Dew Point: 24°C
Humidity: 70%
Barometer: 1009 hPa
Clouds: Partly cloudy
Visibility: 10 km
Cloud details: Few Clouds 579 m
Partly cloudy 7315 m
2021/04/17 10:00 RPVP 171000Z 34006KT 9999 FEW019 SCT240 30/24 Q1009RMK A2980
RPVD - Dumaguete/Negros, Philippines
Distance from station: SSE 643km
Updated: 04/17/2021 5:00pm
NOT Current
Thunderstorm, Overcast
Thunderstorm, Overcast
 Wind from NE
Wind: NE 7 km/h
Temperature: 31°C
Heat Index: 39°C
Dew Point: 26°C
Humidity: 75%
Barometer: 1006 hPa
Summary: Thunderstorm
Clouds: Overcast
Visibility: 10 km
Cloud details: Few Clouds 427 m
Few Clouds 457 m
Overcast 2134 m
2021/04/17 09:00 RPVD 170900Z 04004KT 9999 TS FEW014CB FEW015 OVC070 31/26 Q1006 RMK A2971 CB NNE ENE
 
RPMZ - Zamboanga (civ/A, Philippines
Distance from station: S 868km
Updated: 04/17/2021 6:00pm
Mostly cloudy
Mostly cloudy
 Wind from W
Wind: W 11 km/h
Temperature: 28°C
Heat Index: 32°C
Dew Point: 25°C
Humidity: 84%
Barometer: 1008 hPa
Clouds: Mostly cloudy
Visibility: 10 km
Cloud details: Few Clouds 488 m
Few Clouds 518 m
Mostly cloudy 2743 m
2021/04/17 10:00 RPMZ 171000Z 28006KT 240V300 9999 FEW016CB FEW017 BKN090 28/25 Q1008 RMK A2977 CB S-NW N-NE
RPMD - Davao/Francisco, Philippines
Distance from station: SSE 980km
Updated: 04/17/2021 6:00pm
Overcast
Overcast
 Wind from N
Wind: N 9 km/h
Temperature: 28°C
Heat Index: 32°C
Dew Point: 25°C
Humidity: 84%
Barometer: 1007 hPa
Clouds: Overcast
Visibility: 10 km
Cloud details: Few Clouds 488 m
Partly cloudy 2743 m
Overcast 7925 m
2021/04/17 10:00 RPMD 171000Z 01005KT 9999 FEW016 SCT090 OVC260 28/25 Q1007 RMK A2974